Time;durP1;ratioP1;P1;durP2;ratioP2;P2;SDS_P1;SDS_P2;PMS_P1;PMS_P2;Temp;Humidity;BMP_temperature;BMP_pressure;BME280_temperature;BME280_humidity;BME280_pressure;Samples;Min_cycle;Max_cycle;Signal;HPM_P1;HPM_P2
2023/08/25 00:01:06;;;;;;;4.87;3.20;;;;;;;20.47;100.00;96536.44;4970295;28;105441;-87
2023/08/25 00:03:33;;;;;;;8.63;3.47;;;;;;;20.42;100.00;96560.88;4969861;28;104231;-87
2023/08/25 00:06:00;;;;;;;10.13;3.50;;;;;;;20.40;100.00;96555.00;4970343;28;101892;-87
2023/08/25 00:08:30;;;;;;;11.23;3.37;;;;;;;20.44;100.00;96545.97;4970342;28;104898;-86
2023/08/25 00:10:57;;;;;;;8.20;3.63;;;;;;;20.57;100.00;96522.69;4972775;28;102048;-86
2023/08/25 00:13:24;;;;;;;8.23;3.70;;;;;;;20.55;100.00;96489.78;4970163;28;105141;-86
2023/08/25 00:15:51;;;;;;;9.00;3.70;;;;;;;20.51;100.00;96449.09;4969690;28;105366;-86
2023/08/25 00:18:18;;;;;;;10.53;3.90;;;;;;;20.47;100.00;96420.28;4970297;28;102086;-90
2023/08/25 00:20:45;;;;;;;9.17;3.90;;;;;;;20.39;100.00;96394.81;4953442;28;104813;-90
2023/08/25 00:23:12;;;;;;;10.33;3.50;;;;;;;20.30;100.00;96367.00;4969886;28;105790;-92
2023/08/25 00:25:44;;;;;;;6.97;3.57;;;;;;;20.25;100.00;96350.94;4970024;28;102040;-92
2023/08/25 00:28:11;;;;;;;8.37;3.20;;;;;;;20.21;100.00;96368.09;4972733;28;104477;-93
2023/08/25 00:30:38;;;;;;;7.27;3.63;;;;;;;20.19;100.00;96387.28;4973080;28;105947;-92
2023/08/25 00:33:05;;;;;;;9.30;3.60;;;;;;;20.24;100.00;96370.94;4970559;28;105028;-91
2023/08/25 00:35:32;;;;;;;7.10;3.00;;;;;;;20.21;100.00;96349.97;4969546;28;105128;-88
2023/08/25 00:37:59;;;;;;;9.93;3.77;;;;;;;20.26;100.00;96338.22;4969918;28;101922;-88
2023/08/25 00:40:26;;;;;;;7.43;3.40;;;;;;;20.21;100.00;96344.56;4969961;28;105182;-89
2023/08/25 00:42:55;;;;;;;8.30;3.80;;;;;;;20.04;100.00;96367.94;4969432;28;105623;-89
2023/08/25 00:45:23;;;;;;;9.00;3.60;;;;;;;20.00;100.00;96353.50;4969921;28;102102;-92
2023/08/25 00:47:50;;;;;;;11.43;3.17;;;;;;;20.05;100.00;96335.25;4972146;28;105603;-90
2023/08/25 00:50:17;;;;;;;6.37;3.27;;;;;;;20.12;100.00;96297.03;4967906;28;105176;-89
2023/08/25 00:52:45;;;;;;;9.33;3.30;;;;;;;20.15;100.00;96285.59;4957101;28;102033;-89
2023/08/25 00:55:15;;;;;;;10.70;3.50;;;;;;;20.14;100.00;96279.41;4952736;28;105160;-89
2023/08/25 00:57:42;;;;;;;6.93;2.60;;;;;;;20.22;100.00;96267.06;4953243;28;102099;-89
2023/08/25 01:00:12;;;;;;;5.27;2.30;;;;;;;20.31;100.00;96246.25;4954902;28;105089;-89
2023/08/25 01:02:39;;;;;;;4.93;2.50;;;;;;;20.41;100.00;96225.16;4972020;28;105422;-89
2023/08/25 01:05:07;;;;;;;7.43;2.60;;;;;;;20.45;100.00;96226.13;4962433;28;102141;-88
2023/08/25 01:07:34;;;;;;;5.97;2.20;;;;;;;20.60;100.00;96238.34;4967301;28;105011;-89
2023/08/25 01:10:02;;;;;;;7.67;2.50;;;;;;;20.60;100.00;96246.47;4986983;28;105040;-93
2023/08/25 01:12:42;;;;;;;6.17;2.20;;;;;;;20.75;100.00;96263.00;4955323;28;102040;-93
2023/08/25 01:15:20;;;;;;;6.60;2.30;;;;;;;20.91;100.00;96239.81;4955934;28;105658;-93
2023/08/25 01:17:55;;;;;;;5.73;2.10;;;;;;;21.04;100.00;96238.06;4953682;28;101760;-92
2023/08/25 01:20:23;;;;;;;7.33;1.90;;;;;;;21.28;100.00;96244.56;4961505;28;105847;-92
2023/08/25 01:22:58;;;;;;;4.83;2.17;;;;;;;21.25;100.00;96239.00;4972577;28;106328;-93
2023/08/25 01:25:28;;;;;;;6.50;2.10;;;;;;;21.62;100.00;96243.66;4973137;28;101831;-90
2023/08/25 01:27:56;;;;;;;6.20;1.73;;;;;;;21.58;100.00;96234.63;4972660;28;105205;-90
2023/08/25 01:30:23;;;;;;;3.73;1.60;;;;;;;21.43;100.00;96245.94;4966811;28;104036;-91
2023/08/25 01:32:51;;;;;;;5.90;2.20;;;;;;;21.54;100.00;96245.28;4966783;28;102028;-91
2023/08/25 01:35:19;;;;;;;4.80;2.20;;;;;;;21.56;100.00;96226.00;4970504;28;104118;-94
2023/08/25 01:37:57;;;;;;;5.67;1.90;;;;;;;21.72;100.00;96213.56;4956362;28;105524;-94
2023/08/25 01:40:32;;;;;;;4.67;1.70;;;;;;;21.81;100.00;96200.78;4953471;28;105226;-94
2023/08/25 01:43:00;;;;;;;5.03;2.07;;;;;;;21.99;100.00;96200.38;4953240;28;105148;-96
2023/08/25 01:45:27;;;;;;;5.17;1.93;;;;;;;21.99;100.00;96205.00;4953509;28;101942;-96
2023/08/25 01:47:56;;;;;;;3.40;1.60;;;;;;;21.95;100.00;96204.03;4952926;28;105001;-96
2023/08/25 01:50:24;;;;;;;4.67;1.77;;;;;;;21.91;100.00;96197.72;4952536;28;103800;-89
2023/08/25 01:52:51;;;;;;;4.53;2.43;;;;;;;21.86;100.00;96195.97;4952942;28;102371;-90
2023/08/25 01:55:18;;;;;;;6.27;1.57;;;;;;;21.80;100.00;96180.25;4964106;28;105468;-90
2023/08/25 01:57:46;;;;;;;3.43;1.70;;;;;;;21.74;100.00;96182.34;4953659;28;105205;-91
2023/08/25 02:00:14;;;;;;;2.40;1.80;;;;;;;21.85;100.00;96177.38;4956345;28;101911;-92
2023/08/25 02:02:44;;;;;;;2.33;1.47;;;;;;;22.04;100.00;96191.28;4971556;28;102482;-92
2023/08/25 02:05:11;;;;;;;9.20;2.13;;;;;;;22.17;100.00;96190.25;4956473;28;101949;-90
2023/08/25 02:07:38;;;;;;;6.37;1.70;;;;;;;22.30;100.00;96189.19;4957390;28;103600;-92
2023/08/25 02:10:06;;;;;;;4.67;1.83;;;;;;;22.38;100.00;96196.47;4974911;28;104249;-89
2023/08/25 02:12:34;;;;;;;7.67;1.60;;;;;;;22.40;100.00;96196.94;4962633;28;101969;-89
2023/08/25 02:15:03;;;;;;;2.60;1.43;;;;;;;22.54;100.00;96186.66;4977450;28;102501;-89
2023/08/25 02:17:30;;;;;;;3.93;1.37;;;;;;;22.56;100.00;96181.72;4955271;28;105582;-90
2023/08/25 02:19:57;;;;;;;6.53;1.80;;;;;;;22.53;100.00;96174.22;4966395;28;101937;-89
2023/08/25 02:22:24;;;;;;;4.30;1.93;;;;;;;22.61;100.00;96166.03;4974520;28;105773;-89
2023/08/25 02:24:51;;;;;;;5.40;1.40;;;;;;;22.53;100.00;96158.78;4989879;28;101928;-89
2023/08/25 02:27:18;;;;;;;6.07;1.60;;;;;;;22.51;100.00;96152.09;4988615;28;104087;-89
2023/08/25 02:29:45;;;;;;;2.33;1.50;;;;;;;22.66;100.00;96137.94;4985100;28;103975;-89
2023/08/25 02:32:14;;;;;;;4.23;1.47;;;;;;;22.67;100.00;96124.03;4955699;28;101932;-89
2023/08/25 02:34:41;;;;;;;3.87;1.63;;;;;;;22.75;100.00;96120.47;4955634;28;104944;-92
2023/08/25 02:37:08;;;;;;;4.13;1.70;;;;;;;22.84;100.00;96104.13;4955189;28;105498;-93
2023/08/25 02:39:35;;;;;;;4.63;1.37;;;;;;;23.24;100.00;96100.50;4955601;28;102016;-91
2023/08/25 02:42:03;;;;;;;4.93;1.50;;;;;;;23.29;100.00;96104.91;4962612;28;103750;-89
2023/08/25 02:44:30;;;;;;;2.83;1.50;;;;;;;23.19;100.00;96091.78;4974464;28;101901;-89
2023/08/25 02:46:57;;;;;;;2.77;1.33;;;;;;;23.31;100.00;96094.50;4974852;28;105604;-90
2023/08/25 02:49:26;;;;;;;1.80;1.40;;;;;;;23.25;100.00;96102.09;4974570;28;105554;-96
2023/08/25 02:51:54;;;;;;;2.67;1.30;;;;;;;23.21;100.00;96100.41;4976457;28;101794;-96
2023/08/25 02:54:22;;;;;;;6.87;1.47;;;;;;;23.40;100.00;96097.91;4992895;28;104820;-96
2023/08/25 02:56:51;;;;;;;3.23;1.37;;;;;;;23.41;100.00;96089.44;4975647;28;105595;-96
2023/08/25 02:59:18;;;;;;;2.90;1.30;;;;;;;23.43;100.00;96087.16;4990838;28;101935;-90
2023/08/25 03:01:45;;;;;;;3.63;1.40;;;;;;;23.72;100.00;96088.88;4959811;28;104150;-90
2023/08/25 03:04:12;;;;;;;2.80;1.47;;;;;;;23.89;100.00;96084.03;4993860;28;105417;-89
2023/08/25 03:06:40;;;;;;;4.27;1.73;;;;;;;23.90;100.00;96082.88;4970720;28;105169;-90
2023/08/25 03:09:08;;;;;;;2.67;1.23;;;;;;;23.89;100.00;96084.03;4954784;28;105439;-96
2023/08/25 03:11:35;;;;;;;4.13;1.27;;;;;;;23.82;100.00;96082.97;4955940;28;101934;-96
2023/08/25 03:14:05;;;;;;;4.30;1.33;;;;;;;23.97;100.00;96093.19;4956233;28;104892;-96
2023/08/25 03:16:34;;;;;;;3.57;1.33;;;;;;;23.98;100.00;96092.81;4956610;28;105124;-96
2023/08/25 03:19:01;;;;;;;1.70;1.57;;;;;;;24.02;100.00;96088.28;4956148;28;101810;-92
2023/08/25 03:21:28;;;;;;;4.20;1.40;;;;;;;23.85;100.00;96088.53;4955515;28;104279;-92
2023/08/25 03:23:57;;;;;;;3.17;1.50;;;;;;;23.60;100.00;96080.72;4954166;28;105213;-86
2023/08/25 03:26:24;;;;;;;1.90;1.30;;;;;;;23.81;100.00;96087.59;4958069;28;101959;-89
2023/08/25 03:28:51;;;;;;;3.20;1.60;;;;;;;23.70;100.00;96069.41;4961958;28;105205;-93
2023/08/25 03:31:18;;;;;;;3.43;1.53;;;;;;;23.68;100.00;96071.66;4974892;28;101721;-96
2023/08/25 03:33:45;;;;;;;3.13;1.40;;;;;;;23.66;100.00;96082.09;4974853;28;105204;-96
2023/08/25 03:36:12;;;;;;;2.30;1.43;;;;;;;23.70;100.00;96080.28;4974287;28;105597;-95
2023/08/25 03:38:39;;;;;;;3.47;1.37;;;;;;;23.77;100.00;96094.06;4991786;28;101954;-95
2023/08/25 03:41:08;;;;;;;3.30;1.40;;;;;;;23.78;100.00;96088.31;4991369;28;104363;-95
2023/08/25 03:43:36;;;;;;;2.80;1.40;;;;;;;23.77;100.00;96096.78;4974022;28;105432;-91
2023/08/25 03:46:04;;;;;;;5.07;1.63;;;;;;;23.71;100.00;96100.88;4974260;28;101974;-94
2023/08/25 03:48:31;;;;;;;3.13;1.63;;;;;;;23.69;100.00;96097.69;4973866;28;104237;-95
2023/08/25 03:50:58;;;;;;;4.30;1.70;;;;;;;23.64;100.00;96097.94;4954703;28;102056;-95
2023/08/25 03:53:25;;;;;;;4.70;1.70;;;;;;;23.59;100.00;96106.31;4971549;28;104193;-95
2023/08/25 03:55:52;;;;;;;4.87;1.73;;;;;;;23.55;100.00;96099.97;4954532;28;105494;-96
2023/08/25 03:58:20;;;;;;;6.43;1.77;;;;;;;23.49;100.00;96087.75;4971352;28;102052;-96
2023/08/25 04:00:52;;;;;;;4.70;1.60;;;;;;;23.31;100.00;96089.88;4971338;28;105082;-96
2023/08/25 04:03:19;;;;;;;6.43;1.93;;;;;;;23.23;100.00;96087.28;4970657;28;105363;-95
2023/08/25 04:05:46;;;;;;;3.60;1.97;;;;;;;23.18;100.00;96090.19;4971303;28;101949;-95
2023/08/25 04:08:13;;;;;;;5.80;1.80;;;;;;;23.12;100.00;96081.47;4968233;28;104075;-96
2023/08/25 04:10:41;;;;;;;5.03;1.90;;;;;;;23.07;100.00;96080.88;4956887;28;105744;-89
2023/08/25 04:13:10;;;;;;;3.37;1.73;;;;;;;23.05;100.00;96077.72;4968225;28;104541;-87
2023/08/25 04:15:39;;;;;;;5.10;1.90;;;;;;;23.03;100.00;96077.25;4953234;28;105756;-88
2023/08/25 04:18:07;;;;;;;5.90;1.87;;;;;;;23.00;100.00;96084.13;4953639;28;102094;-85
2023/08/25 04:20:34;;;;;;;4.23;1.60;;;;;;;22.97;100.00;96092.16;4953950;28;105253;-93
2023/08/25 04:23:03;;;;;;;6.17;2.00;;;;;;;22.98;100.00;96091.84;4956205;28;105397;-92
2023/08/25 04:25:30;;;;;;;3.30;1.77;;;;;;;22.93;100.00;96093.94;4971793;28;101945;-92
2023/08/25 04:28:00;;;;;;;3.83;1.80;;;;;;;22.90;100.00;96094.63;4954494;28;103806;-92
2023/08/25 04:30:27;;;;;;;6.10;2.47;;;;;;;22.90;100.00;96091.94;4956749;28;105465;-94
2023/08/25 04:32:59;;;;;;;7.07;2.27;;;;;;;22.80;100.00;96105.91;4953568;28;104546;-86
2023/08/25 04:35:29;;;;;;;4.97;2.00;;;;;;;22.68;100.00;96114.00;4953041;28;105098;-90
2023/08/25 04:37:57;;;;;;;6.53;2.53;;;;;;;22.69;100.00;96129.13;4972415;28;102044;-86
2023/08/25 04:40:24;;;;;;;3.43;1.97;;;;;;;22.74;100.00;96139.78;4973017;28;103782;-85
2023/08/25 04:42:53;;;;;;;6.03;2.27;;;;;;;22.74;100.00;96139.78;4989049;28;104491;-86
2023/08/25 04:45:20;;;;;;;4.20;2.00;;;;;;;22.77;100.00;96136.41;4972988;28;102036;-89
2023/08/25 04:47:46;;;;;;;6.13;2.20;;;;;;;22.77;100.00;96142.59;4970390;28;105753;-84
2023/08/25 04:50:15;;;;;;;2.57;2.00;;;;;;;22.82;100.00;96141.59;4967744;28;104962;-84
2023/08/25 04:52:42;;;;;;;3.63;2.13;;;;;;;22.87;100.00;96136.78;4992932;28;101966;-92
2023/08/25 04:55:10;;;;;;;7.37;2.50;;;;;;;22.89;100.00;96136.44;4988902;28;105285;-87
2023/08/25 04:57:36;;;;;;;5.13;2.10;;;;;;;22.91;100.00;96129.56;4972524;28;101952;-87
2023/08/25 05:00:05;;;;;;;4.30;2.20;;;;;;;22.94;100.00;96130.81;4985901;28;105926;-83
2023/08/25 05:02:33;;;;;;;6.03;2.13;;;;;;;22.98;100.00;96135.22;4952558;28;103868;-81
2023/08/25 05:05:00;;;;;;;4.43;1.80;;;;;;;23.04;100.00;96133.88;4971097;28;102249;-85
2023/08/25 05:07:30;;;;;;;4.63;2.20;;;;;;;23.14;100.00;96110.97;4988990;28;105705;-89
2023/08/25 05:09:57;;;;;;;5.00;2.00;;;;;;;23.20;100.00;96121.28;4988400;28;105726;-83
2023/08/25 05:12:26;;;;;;;4.83;1.97;;;;;;;23.21;100.00;96084.13;4953191;28;101861;-85
2023/08/25 05:14:54;;;;;;;6.37;2.33;;;;;;;23.16;100.00;96062.59;4976981;28;105146;-82
2023/08/25 05:17:24;;;;;;;4.13;2.07;;;;;;;23.21;100.00;96029.84;4985709;28;102051;-82
2023/08/25 05:19:52;;;;;;;4.73;2.23;;;;;;;23.29;100.00;96018.09;4972310;28;105435;-82
2023/08/25 05:22:21;;;;;;;3.73;1.70;;;;;;;23.30;100.00;96001.47;4971584;28;105490;-82
2023/08/25 05:24:52;;;;;;;4.33;1.90;;;;;;;23.34;100.00;95974.44;4971926;28;102199;-82
2023/08/25 05:27:21;;;;;;;4.60;1.80;;;;;;;23.37;100.00;95954.78;4966876;28;105273;-82
2023/08/25 05:29:55;;;;;;;4.73;1.50;;;;;;;23.50;100.00;95929.19;4952037;28;105365;-82
2023/08/25 05:32:25;;;;;;;3.37;1.90;;;;;;;23.52;100.00;95913.34;4952579;28;102009;-82
2023/08/25 05:35:09;;;;;;;3.93;1.63;;;;;;;23.72;100.00;95915.09;4967179;28;102205;-82
2023/08/25 05:37:38;;;;;;;2.40;1.60;;;;;;;23.87;100.00;95933.38;4956027;28;105933;-82
2023/08/25 05:40:14;;;;;;;3.77;1.60;;;;;;;24.20;100.00;95955.69;4955964;28;105487;-82
2023/08/25 05:42:45;;;;;;;2.77;1.60;;;;;;;24.37;100.00;95930.91;4966271;28;104983;-82
2023/08/25 05:45:18;;;;;;;4.93;1.90;;;;;;;24.39;100.00;95926.69;4975661;28;102028;-82
2023/08/25 05:47:49;;;;;;;3.40;1.60;;;;;;;24.32;100.00;95906.69;4983214;28;105590;-82
2023/08/25 05:50:19;;;;;;;4.00;1.80;;;;;;;24.37;100.00;95882.78;4955175;28;105289;-82
2023/08/25 05:52:48;;;;;;;5.23;1.87;;;;;;;24.49;100.00;95884.59;4955669;28;101932;-82
2023/08/25 05:55:17;;;;;;;4.23;1.47;;;;;;;24.63;100.00;95896.66;4973403;28;101981;-82
2023/08/25 05:57:49;;;;;;;4.13;1.70;;;;;;;24.66;100.00;95867.97;4955106;28;104140;-82
2023/08/25 06:00:18;;;;;;;1.97;1.53;;;;;;;24.76;100.00;95872.88;4959000;28;102059;-82
2023/08/25 06:02:47;;;;;;;3.53;1.50;;;;;;;24.89;100.00;95887.94;4954860;28;104365;-82
2023/08/25 06:05:17;;;;;;;3.10;1.43;;;;;;;24.98;100.00;95889.34;4955287;28;101879;-82
2023/08/25 06:07:49;;;;;;;1.20;1.10;;;;;;;25.01;100.00;95885.13;4971314;28;105315;-82
2023/08/25 06:10:20;;;;;;;3.73;1.70;;;;;;;24.90;100.00;95881.38;4974408;28;105449;-82
2023/08/25 06:12:47;;;;;;;2.70;1.50;;;;;;;24.72;100.00;95888.31;4974884;28;101965;-81
2023/08/25 06:15:15;;;;;;;5.33;1.63;;;;;;;24.64;100.00;95892.78;4975032;28;105541;-88
2023/08/25 06:17:42;;;;;;;4.17;1.73;;;;;;;24.75;100.00;95906.66;4971316;28;105119;-88
2023/08/25 06:20:09;;;;;;;4.67;1.67;;;;;;;24.77;100.00;95905.16;4970208;28;101966;-90
2023/08/25 06:22:45;;;;;;;2.10;1.20;;;;;;;24.91;100.00;95891.88;4992587;28;105132;-76
2023/08/25 06:25:26;;;;;;;2.80;1.70;;;;;;;24.95;100.00;95879.16;4986567;28;102478;-82
2023/08/25 06:27:55;;;;;;;4.07;1.60;;;;;;;25.04;100.00;95858.00;4982232;28;104973;-82
2023/08/25 06:30:23;;;;;;;2.90;1.70;;;;;;;25.07;100.00;95872.84;4990187;28;106440;-83
2023/08/25 06:32:50;;;;;;;3.93;1.83;;;;;;;25.11;100.00;95855.44;4979247;28;102182;-82
2023/08/25 06:35:17;;;;;;;5.03;1.90;;;;;;;25.12;100.00;95865.16;4983748;28;104174;-90
2023/08/25 06:37:50;;;;;;;4.73;1.83;;;;;;;25.21;100.00;95873.94;4991157;28;103141;-84
2023/08/25 06:40:26;;;;;;;3.73;1.43;;;;;;;25.09;100.00;95868.63;4971852;28;101985;-84
2023/08/25 06:42:55;;;;;;;3.43;1.40;;;;;;;25.01;100.00;95885.13;4988909;28;103243;-83
2023/08/25 06:45:22;;;;;;;5.50;2.07;;;;;;;24.96;100.00;95899.00;4987028;28;102186;-83
2023/08/25 06:47:50;;;;;;;2.80;1.50;;;;;;;24.94;100.00;95884.97;4973187;28;103148;-89
2023/08/25 06:50:26;;;;;;;2.87;1.50;;;;;;;25.05;100.00;95886.00;4977368;28;103266;-84
2023/08/25 06:52:58;;;;;;;3.13;1.80;;;;;;;25.09;100.00;95876.78;4973737;28;102016;-83
2023/08/25 06:55:26;;;;;;;2.53;1.60;;;;;;;25.12;100.00;95891.63;4974085;28;105903;-83
2023/08/25 06:57:53;;;;;;;3.10;1.40;;;;;;;25.09;100.00;95886.88;4989714;28;105250;-83
2023/08/25 07:00:25;;;;;;;4.07;1.60;;;;;;;25.04;100.00;95901.53;4960007;28;102038;-85
2023/08/25 07:02:58;;;;;;;2.67;1.60;;;;;;;24.86;100.00;95896.81;4978097;28;102328;-84
2023/08/25 07:05:27;;;;;;;3.07;1.60;;;;;;;24.69;100.00;95905.34;5009358;28;105716;-83
2023/08/25 07:08:00;;;;;;;4.00;1.60;;;;;;;24.58;100.00;95904.28;5007156;28;105485;-85
2023/08/25 07:10:29;;;;;;;5.13;1.70;;;;;;;24.71;100.00;95897.63;4996780;28;105342;-84
2023/08/25 07:12:56;;;;;;;3.20;1.53;;;;;;;24.78;100.00;95914.09;4989344;28;102335;-80
2023/08/25 07:15:24;;;;;;;6.17;1.63;;;;;;;24.52;100.00;95924.69;4975356;28;105276;-83
2023/08/25 07:17:53;;;;;;;5.93;2.20;;;;;;;24.35;100.00;95927.75;4989208;28;104454;-79
2023/08/25 07:20:20;;;;;;;4.90;1.83;;;;;;;24.46;100.00;95936.97;4981035;28;102271;-81
2023/08/25 07:22:47;;;;;;;2.57;1.50;;;;;;;24.37;100.00;95930.91;4973608;28;105641;-82
2023/08/25 07:25:15;;;;;;;4.23;1.70;;;;;;;24.53;100.00;95945.31;4989118;28;103056;-82
2023/08/25 07:27:45;;;;;;;3.87;2.07;;;;;;;24.73;100.00;95938.88;4994832;28;102263;-80
2023/08/25 07:30:12;;;;;;;2.27;1.60;;;;;;;24.87;100.00;95950.88;4970888;28;104253;-86
2023/08/25 07:32:40;;;;;;;2.60;1.70;;;;;;;24.97;100.00;95935.94;4989924;28;102096;-86
2023/08/25 07:35:08;;;;;;;2.67;1.90;;;;;;;25.04;100.00;95938.84;4973322;28;104874;-87
2023/08/25 07:37:37;;;;;;;2.93;1.37;;;;;;;25.33;100.00;95936.44;4968995;28;105585;-84
2023/08/25 07:40:05;;;;;;;4.20;1.70;;;;;;;25.44;100.00;95926.59;4969767;28;102037;-85
2023/08/25 07:42:32;;;;;;;3.73;1.60;;;;;;;25.63;100.00;95928.56;4953593;28;105171;-83
2023/08/25 07:44:59;;;;;;;3.47;1.83;;;;;;;25.72;100.00;95923.69;4965157;28;104094;-83
2023/08/25 07:47:26;;;;;;;3.23;1.97;;;;;;;25.97;100.00;95927.72;4971097;28;102081;-85
2023/08/25 07:49:55;;;;;;;3.40;1.87;;;;;;;26.11;100.00;95936.97;4972024;28;104570;-84
2023/08/25 07:52:22;;;;;;;4.67;1.90;;;;;;;26.08;100.00;95953.25;4970074;28;102104;-87
2023/08/25 07:54:49;;;;;;;4.50;2.03;;;;;;;25.77;100.00;95954.16;4976299;28;105496;-86
2023/08/25 07:57:18;;;;;;;3.03;1.77;;;;;;;25.95;100.00;95951.84;4990363;28;103732;-84
2023/08/25 07:59:45;;;;;;;4.57;1.90;;;;;;;25.79;100.00;95956.53;4972414;28;102429;-89
2023/08/25 08:02:12;;;;;;;3.60;1.90;;;;;;;25.50;100.00;95962.50;4972315;28;105237;-81
2023/08/25 08:04:39;;;;;;;2.30;1.50;;;;;;;25.76;100.00;95965.41;4988888;28;104176;-81
2023/08/25 08:07:08;;;;;;;2.57;2.03;;;;;;;25.75;100.00;95969.28;4972265;28;102000;-80
2023/08/25 08:09:36;;;;;;;2.00;1.80;;;;;;;25.85;100.00;95964.06;4990684;28;102525;-81
2023/08/25 08:12:03;;;;;;;4.50;1.73;;;;;;;25.84;100.00;95954.28;4980997;28;102954;-81
2023/08/25 08:14:35;;;;;;;4.40;1.70;;;;;;;25.91;100.00;95953.69;4956417;28;105309;-81
2023/08/25 08:17:02;;;;;;;3.93;1.97;;;;;;;25.82;100.00;95958.56;4978964;28;106276;-81
2023/08/25 08:19:29;;;;;;;5.03;1.93;;;;;;;25.54;100.00;95979.69;4953016;28;102317;-80
2023/08/25 08:21:57;;;;;;;3.23;1.90;;;;;;;25.22;100.00;95987.09;4979177;28;102967;-81
2023/08/25 08:24:26;;;;;;;5.00;2.07;;;;;;;24.63;100.00;96010.09;4971964;28;105642;-80
2023/08/25 08:26:53;;;;;;;4.37;2.10;;;;;;;24.40;100.00;96017.97;4972119;28;102251;-79
2023/08/25 08:29:20;;;;;;;3.43;2.17;;;;;;;24.28;100.00;96030.81;4972534;28;104129;-78
2023/08/25 08:31:47;;;;;;;3.83;2.17;;;;;;;24.39;100.00;96024.56;4967648;28;105459;-78
2023/08/25 08:34:14;;;;;;;4.07;2.00;;;;;;;24.39;100.00;96050.94;4973952;28;102110;-79
2023/08/25 08:36:41;;;;;;;3.00;1.97;;;;;;;24.21;100.00;96074.09;4989626;28;103390;-77
2023/08/25 08:39:08;;;;;;;4.60;2.20;;;;;;;24.28;100.00;96063.44;4988997;28;102192;-79
2023/08/25 08:41:39;;;;;;;7.10;2.40;;;;;;;24.44;100.00;96062.38;5004588;28;104173;-76
2023/08/25 08:44:08;;;;;;;5.50;2.27;;;;;;;24.74;100.00;96055.44;4971742;28;104072;-81
2023/08/25 08:46:38;;;;;;;7.90;2.70;;;;;;;24.88;100.00;96084.94;4988974;28;102170;-82
2023/08/25 08:49:05;;;;;;;4.70;2.20;;;;;;;24.98;100.00;96068.94;4988689;28;104130;-81
2023/08/25 08:51:33;;;;;;;7.13;2.70;;;;;;;25.12;100.00;96071.22;5005040;28;104279;-83
2023/08/25 08:54:04;;;;;;;5.03;2.60;;;;;;;25.11;100.00;96083.25;4998221;28;102232;-82
2023/08/25 08:56:31;;;;;;;6.43;2.33;;;;;;;25.20;100.00;96081.94;4968227;28;104113;-83
2023/08/25 08:59:00;;;;;;;4.80;2.53;;;;;;;25.22;100.00;96076.91;4968785;28;102285;-81
2023/08/25 09:01:28;;;;;;;6.83;2.80;;;;;;;25.20;100.00;96078.41;4969003;28;105365;-82
2023/08/25 09:03:59;;;;;;;8.13;2.40;;;;;;;25.26;100.00;96077.84;4948596;28;104610;-82
2023/08/25 09:06:27;;;;;;;5.97;2.30;;;;;;;25.28;100.00;96074.78;4965876;28;102011;-82
2023/08/25 09:09:01;;;;;;;5.17;2.47;;;;;;;25.42;100.00;96070.47;4968901;28;105396;-82
2023/08/25 09:11:28;;;;;;;4.50;2.40;;;;;;;25.41;100.00;96073.53;4969032;28;105724;-84
2023/08/25 09:13:58;;;;;;;3.43;2.10;;;;;;;25.37;100.00;96083.53;4953382;28;102362;-81
2023/08/25 09:16:27;;;;;;;2.70;1.97;;;;;;;25.69;100.00;96079.66;4972062;28;105572;-81
2023/08/25 09:18:54;;;;;;;4.13;2.20;;;;;;;26.00;100.00;96052.38;4972272;28;102090;-81
2023/08/25 09:21:22;;;;;;;2.77;2.20;;;;;;;26.18;100.00;96042.66;4964807;28;105025;-82
2023/08/25 09:23:53;;;;;;;3.43;2.17;;;;;;;26.42;100.00;96015.88;4954449;28;105350;-82
2023/08/25 09:26:20;;;;;;;6.13;2.47;;;;;;;26.40;100.00;96011.94;4971708;28;102286;-81
2023/08/25 09:28:47;;;;;;;6.30;2.70;;;;;;;26.36;100.00;96011.06;4971921;28;104985;-81
2023/08/25 09:31:21;;;;;;;3.23;2.10;;;;;;;26.50;100.00;96014.09;4956931;28;105264;-84
2023/08/25 09:33:51;;;;;;;6.20;2.60;;;;;;;26.41;100.00;96013.50;4985661;28;102500;-82
2023/08/25 09:36:18;;;;;;;3.13;2.00;;;;;;;26.48;100.00;96027.31;4988427;28;105294;-80
2023/08/25 09:38:46;;;;;;;4.40;2.30;;;;;;;25.74;100.00;96112.06;4974930;28;104789;-80
2023/08/25 09:41:23;;;;;;;3.07;2.30;;;;;;;25.15;100.00;96171.19;4973051;28;103085;-79
2023/08/25 09:43:51;;;;;;;5.77;2.47;;;;;;;24.88;100.00;96183.69;4958050;28;103149;-79
2023/08/25 09:46:18;;;;;;;7.30;2.53;;;;;;;24.83;100.00;96183.13;4966318;28;102370;-77
2023/08/25 09:48:45;;;;;;;7.80;2.60;;;;;;;24.94;100.00;96185.03;4987729;28;105369;-76
2023/08/25 09:51:17;;;;;;;5.60;2.80;;;;;;;24.89;100.00;96176.31;4971094;28;104182;-76
2023/08/25 09:53:48;;;;;;;4.30;2.63;;;;;;;24.95;100.00;96164.84;4971805;28;102282;-78
2023/08/25 09:56:15;;;;;;;4.17;2.30;;;;;;;24.86;100.00;96188.69;4971660;28;105434;-79
2023/08/25 09:58:42;;;;;;;2.90;2.13;;;;;;;24.82;100.00;96181.53;4972266;28;103496;-80
2023/08/25 10:01:09;;;;;;;5.93;2.20;;;;;;;24.84;100.00;96204.56;4975191;28;102112;-80
2023/08/25 10:03:37;;;;;;;2.73;2.00;;;;;;;24.93;100.00;96209.84;4959002;28;105163;-82
2023/08/25 10:06:06;;;;;;;2.87;2.30;;;;;;;25.05;100.00;96223.41;4963840;28;102757;-82
2023/08/25 10:08:34;;;;;;;3.83;2.20;;;;;;;25.02;100.00;96227.59;4971436;28;105465;-80
2023/08/25 10:11:04;;;;;;;2.30;2.03;;;;;;;25.11;100.00;96228.25;4971773;28;103257;-82
2023/08/25 10:13:34;;;;;;;3.23;2.27;;;;;;;25.16;100.00;96240.81;4951569;28;102118;-82
2023/08/25 10:16:05;;;;;;;2.63;2.13;;;;;;;25.33;100.00;96243.31;4964248;28;102549;-81
2023/08/25 10:18:38;;;;;;;3.63;2.10;;;;;;;25.41;100.00;96250.50;4970749;28;105337;-82
2023/08/25 10:21:07;;;;;;;3.17;2.13;;;;;;;25.43;100.00;96272.72;4971561;28;102264;-82
2023/08/25 10:23:37;;;;;;;2.70;2.50;;;;;;;25.46;100.00;96281.03;4973147;28;104203;-82
2023/08/25 10:26:05;;;;;;;4.70;2.70;;;;;;;25.80;100.00;96293.19;4987366;28;102201;-81
2023/08/25 10:28:33;;;;;;;2.20;2.10;;;;;;;25.76;100.00;96281.41;4972583;28;102593;-81
2023/08/25 10:31:00;;;;;;;2.57;2.37;;;;;;;26.09;100.00;96273.72;4970159;28;104682;-85
2023/08/25 10:33:27;;;;;;;3.77;2.50;;;;;;;26.53;100.00;96280.69;4971072;28;102066;-82
2023/08/25 10:35:55;;;;;;;3.67;2.30;;;;;;;26.87;100.00;96294.34;4977277;28;105100;-75
2023/08/25 10:38:36;;;;;;;2.77;2.30;;;;;;;26.97;100.00;96293.03;4970106;28;105970;-81
2023/08/25 10:41:17;;;;;;;2.50;2.30;;;;;;;27.28;100.00;96292.91;4952968;28;102058;-81
2023/08/25 10:43:51;;;;;;;2.33;2.13;;;;;;;27.02;100.00;96285.31;4951220;28;105495;-75
2023/08/25 10:46:20;;;;;;;3.53;2.60;;;;;;;27.40;100.00;96284.59;4966550;28;102021;-80
2023/08/25 10:48:48;;;;;;;5.43;2.40;;;;;;;27.36;100.00;96272.81;4969748;28;105080;-84
2023/08/25 10:51:20;;;;;;;4.47;2.30;;;;;;;28.17;100.00;96269.66;4969299;28;104159;-77
2023/08/25 10:53:52;;;;;;;3.53;2.10;;;;;;;27.98;100.00;96272.44;4951073;28;102180;-79
2023/08/25 10:56:25;;;;;;;2.57;2.17;;;;;;;28.44;100.00;96274.81;4963473;28;104173;-77
2023/08/25 10:58:59;;;;;;;3.83;2.80;;;;;;;28.37;100.00;96258.28;4959707;28;105117;-79
2023/08/25 11:01:28;;;;;;;2.53;2.33;;;;;;;28.09;100.00;96271.50;4970321;28;102313;-82
2023/08/25 11:04:10;;;;;;;2.77;2.33;;;;;;;28.27;100.00;96258.13;4952110;28;105633;-76
2023/08/25 11:06:42;;;;;;;2.28;2.08;;;;;;;28.57;100.00;96262.53;4969634;28;103181;-75
2023/08/25 11:09:30;;;;;;;3.67;2.47;;;;;;;28.19;100.00;96261.88;4970211;28;105172;-79
2023/08/25 11:11:59;;;;;;;3.47;2.38;;;;;;;28.22;100.00;96261.16;4971203;28;103069;-79
2023/08/25 11:14:29;;;;;;;2.53;2.33;;;;;;;28.64;100.00;96251.69;4970108;28;102364;-79
2023/08/25 11:16:56;;;;;;;2.55;2.20;;;;;;;29.48;100.00;96246.56;4970103;28;105369;-79
2023/08/25 11:19:25;;;;;;;2.97;2.40;;;;;;;29.13;100.00;96230.50;4969470;28;105785;-80
2023/08/25 11:22:00;;;;;;;3.30;2.55;;;;;;;29.11;100.00;96243.78;4970410;28;102147;-84
2023/08/25 11:24:30;;;;;;;3.17;2.33;;;;;;;28.73;100.00;96232.25;4970191;28;105139;-84